Time;durP1;ratioP1;P1;durP2;ratioP2;P2;SDS_P1;SDS_P2;PMS_P1;PMS_P2;Temp;Humidity;BMP_temperature;BMP_pressure;BME280_temperature;BME280_humidity;BME280_pressure;Samples;Min_cycle;Max_cycle;Signal;HPM_P1;HPM_P2
2022/08/19 00:01:32;;;;;;;13.67;12.37;;;;;;;21.30;69.89;97653.09;5055443;28;20248;-70
2022/08/19 00:04:01;;;;;;;14.40;13.20;;;;;;;21.28;70.05;97649.84;5055877;28;20275;-70
2022/08/19 00:06:29;;;;;;;13.70;12.30;;;;;;;21.28;70.43;97644.44;5055704;28;20292;-70
2022/08/19 00:08:57;;;;;;;13.43;12.17;;;;;;;21.24;70.23;97643.44;5055535;28;20308;-70
2022/08/19 00:11:27;;;;;;;14.13;12.83;;;;;;;21.28;69.83;97639.88;5055576;28;20294;-70
2022/08/19 00:13:54;;;;;;;14.47;13.17;;;;;;;21.29;69.81;97646.88;5055207;28;20224;-70
2022/08/19 00:16:22;;;;;;;14.90;13.50;;;;;;;21.25;69.77;97642.38;5055177;28;20668;-70
2022/08/19 00:18:49;;;;;;;14.77;13.43;;;;;;;21.30;70.08;97658.50;5055367;28;20219;-70
2022/08/19 00:21:16;;;;;;;13.70;12.33;;;;;;;21.31;69.89;97654.69;5055410;28;20296;-69
2022/08/19 00:23:43;;;;;;;14.67;13.27;;;;;;;21.36;69.35;97651.91;5054977;28;20228;-70
2022/08/19 00:26:11;;;;;;;13.60;12.37;;;;;;;21.25;69.92;97647.78;5055318;28;20297;-70
2022/08/19 00:28:38;;;;;;;14.07;12.67;;;;;;;21.24;69.85;97660.47;5055189;28;20205;-70
2022/08/19 00:31:07;;;;;;;13.47;12.33;;;;;;;21.25;69.80;97651.25;5055151;28;20240;-71
2022/08/19 00:33:34;;;;;;;13.67;12.47;;;;;;;21.19;70.48;97643.53;5054863;28;20205;-70
2022/08/19 00:36:08;;;;;;;12.30;11.20;;;;;;;21.21;70.57;97638.66;5055025;28;20300;-70
2022/08/19 00:38:36;;;;;;;14.20;12.57;;;;;;;21.17;70.35;97638.44;5055608;28;20192;-70
2022/08/19 00:41:03;;;;;;;14.87;13.57;;;;;;;21.19;70.26;97625.41;5054939;28;20279;-70
2022/08/19 00:43:29;;;;;;;14.47;13.07;;;;;;;21.21;69.63;97611.59;5054912;28;20225;-70
2022/08/19 00:45:56;;;;;;;13.27;12.17;;;;;;;21.16;70.46;97614.41;5054960;28;20300;-70
2022/08/19 00:48:23;;;;;;;13.83;12.63;;;;;;;21.18;70.52;97620.31;5054908;28;20211;-70
2022/08/19 00:50:52;;;;;;;13.50;12.30;;;;;;;21.11;71.03;97626.09;5054502;28;20236;-70
2022/08/19 00:53:22;;;;;;;14.23;12.93;;;;;;;21.13;70.47;97631.22;5054801;28;20201;-70
2022/08/19 00:55:52;;;;;;;13.90;12.60;;;;;;;21.13;70.62;97633.91;5054449;28;20201;-70
2022/08/19 00:58:21;;;;;;;14.97;13.40;;;;;;;21.12;70.33;97638.50;5054680;28;20205;-70
2022/08/19 01:00:49;;;;;;;15.23;13.73;;;;;;;21.10;70.30;97640.72;5054498;28;20654;-70
2022/08/19 01:03:20;;;;;;;15.33;13.93;;;;;;;21.12;70.72;97645.81;5054162;28;20221;-70
2022/08/19 01:05:49;;;;;;;13.73;12.50;;;;;;;21.09;71.06;97639.13;5054292;28;20190;-70
2022/08/19 01:08:18;;;;;;;14.63;13.30;;;;;;;21.11;70.62;97644.22;5054394;28;20209;-70
2022/08/19 01:10:52;;;;;;;14.43;13.03;;;;;;;21.15;70.50;97642.50;5054071;28;20312;-70
2022/08/19 01:13:22;;;;;;;13.80;12.60;;;;;;;21.12;70.81;97643.13;5054063;28;20186;-70
2022/08/19 01:16:01;;;;;;;13.73;12.53;;;;;;;21.10;71.02;97638.00;5054220;28;20209;-70
2022/08/19 01:18:29;;;;;;;14.60;13.30;;;;;;;21.16;70.33;97631.41;5036298;28;20634;-70
2022/08/19 01:21:01;;;;;;;14.27;12.97;;;;;;;21.15;70.71;97632.50;5054168;28;20308;-70
2022/08/19 01:23:42;;;;;;;13.97;12.67;;;;;;;21.11;71.09;97633.41;5036500;28;20296;-70
2022/08/19 01:26:14;;;;;;;14.80;13.50;;;;;;;21.12;70.89;97629.59;5054221;28;20189;-70
2022/08/19 01:28:43;;;;;;;16.63;15.00;;;;;;;21.11;70.66;97636.91;5053771;28;20229;-70
2022/08/19 01:31:15;;;;;;;15.03;13.70;;;;;;;21.04;71.22;97632.97;5053800;28;20672;-70
2022/08/19 01:33:43;;;;;;;15.20;13.90;;;;;;;21.03;71.47;97634.88;5054114;28;20276;-70
2022/08/19 01:36:26;;;;;;;15.37;13.83;;;;;;;21.00;71.44;97624.66;5053990;28;20201;-70
2022/08/19 01:38:53;;;;;;;16.00;14.60;;;;;;;20.97;71.54;97622.53;5053882;28;20240;-70
2022/08/19 01:41:20;;;;;;;14.70;13.30;;;;;;;20.98;71.73;97626.06;5053944;28;20205;-70
2022/08/19 01:43:46;;;;;;;15.53;13.93;;;;;;;21.03;71.91;97621.34;5053758;28;20226;-70
2022/08/19 01:46:13;;;;;;;16.17;14.57;;;;;;;21.03;71.71;97628.69;5053536;28;20254;-70
2022/08/19 01:48:43;;;;;;;15.43;13.83;;;;;;;21.02;72.13;97629.78;5053549;28;20259;-70
2022/08/19 01:51:11;;;;;;;16.13;14.60;;;;;;;21.03;71.95;97626.75;5053468;28;20232;-70
2022/08/19 01:53:38;;;;;;;17.00;15.23;;;;;;;20.99;72.17;97623.06;5053737;28;20296;-70
2022/08/19 01:56:05;;;;;;;16.87;15.17;;;;;;;21.00;71.87;97626.56;5053657;28;20296;-70
2022/08/19 01:58:38;;;;;;;16.17;14.67;;;;;;;20.92;72.50;97619.13;5053689;28;20303;-70
2022/08/19 02:01:05;;;;;;;17.60;15.90;;;;;;;20.99;71.97;97635.78;5053602;28;20189;-70
2022/08/19 02:03:31;;;;;;;16.97;15.37;;;;;;;21.00;72.31;97629.25;5053484;28;20236;-70
2022/08/19 02:06:02;;;;;;;17.30;15.50;;;;;;;20.92;72.69;97625.34;5053273;28;20672;-70
2022/08/19 02:08:29;;;;;;;16.43;14.83;;;;;;;20.91;72.78;97629.16;5053592;28;20189;-70
2022/08/19 02:10:56;;;;;;;17.90;16.07;;;;;;;20.81;73.22;97631.16;5053111;28;20252;-70
2022/08/19 02:13:24;;;;;;;17.93;16.23;;;;;;;20.84;73.27;97636.00;5053176;28;20545;-70
2022/08/19 02:15:50;;;;;;;19.07;17.37;;;;;;;20.89;73.15;97631.28;5053447;28;20212;-70
2022/08/19 02:18:17;;;;;;;18.27;16.63;;;;;;;20.85;73.32;97629.47;5053151;28;20208;-70
2022/08/19 02:20:46;;;;;;;18.07;16.30;;;;;;;20.84;73.39;97623.25;5053281;28;20225;-70
2022/08/19 02:23:14;;;;;;;18.83;17.03;;;;;;;20.83;73.44;97629.78;5052927;28;20719;-70
2022/08/19 02:25:42;;;;;;;18.63;16.93;;;;;;;20.86;73.25;97620.28;5053026;28;20295;-71
2022/08/19 02:28:09;;;;;;;17.97;16.27;;;;;;;20.76;74.09;97628.53;5053349;28;20233;-70
2022/08/19 02:30:35;;;;;;;19.40;17.60;;;;;;;20.77;74.18;97630.16;5052907;28;20682;-70
2022/08/19 02:33:01;;;;;;;18.73;16.47;;;;;;;20.79;74.02;97628.75;5052969;28;20304;-70
2022/08/19 02:35:28;;;;;;;19.57;17.67;;;;;;;20.71;74.41;97634.03;5053068;28;20573;-70
2022/08/19 02:40:38;;;;;;;20.03;18.00;;;;;;;20.61;74.78;97626.88;5052836;28;20211;-70
2022/08/19 02:43:07;;;;;;;21.10;19.07;;;;;;;20.58;75.05;97640.16;5053110;28;20234;-70
2022/08/19 02:45:36;;;;;;;19.27;17.27;;;;;;;20.60;75.22;97629.84;5053126;28;20300;-70
2022/08/19 02:48:04;;;;;;;20.27;18.17;;;;;;;20.56;75.47;97631.53;5052996;28;20240;-70
2022/08/19 02:50:30;;;;;;;19.70;17.77;;;;;;;20.62;75.21;97625.00;5053085;28;20229;-70
2022/08/19 02:52:57;;;;;;;21.90;19.70;;;;;;;20.60;75.49;97627.16;5052626;28;20613;-70
2022/08/19 02:55:23;;;;;;;20.40;18.40;;;;;;;20.57;75.50;97628.56;5052632;28;20244;-70
2022/08/19 02:57:50;;;;;;;21.13;19.07;;;;;;;20.49;75.97;97629.22;5053028;28;20300;-70
2022/08/19 03:00:17;;;;;;;20.60;18.60;;;;;;;20.47;76.29;97619.78;5055535;28;20786;-70
2022/08/19 03:02:43;;;;;;;20.07;18.17;;;;;;;20.46;76.37;97612.78;5056810;28;20201;-70
2022/08/19 03:05:11;;;;;;;20.70;18.70;;;;;;;20.45;76.26;97620.09;5056673;28;20225;-70
2022/08/19 03:07:37;;;;;;;20.23;18.47;;;;;;;20.46;76.41;97612.78;5056812;28;20205;-70
2022/08/19 03:10:04;;;;;;;22.13;20.07;;;;;;;20.44;76.49;97612.28;5056714;28;20229;-70
2022/08/19 03:12:31;;;;;;;21.47;19.40;;;;;;;20.41;76.88;97613.69;5056372;28;20205;-70
2022/08/19 03:14:58;;;;;;;21.50;19.43;;;;;;;20.39;77.14;97625.88;5056151;28;20303;-70
2022/08/19 03:17:24;;;;;;;23.47;21.03;;;;;;;20.39;76.76;97625.88;5056615;28;20296;-70
2022/08/19 03:19:51;;;;;;;21.07;19.00;;;;;;;20.41;76.97;97629.06;5056035;28;20704;-69
2022/08/19 03:22:17;;;;;;;22.17;19.87;;;;;;;20.40;76.89;97638.25;5056090;28;20205;-70
2022/08/19 03:24:44;;;;;;;21.83;19.63;;;;;;;20.33;77.04;97638.63;5056287;28;20319;-70
2022/08/19 03:27:10;;;;;;;22.47;20.27;;;;;;;20.40;77.41;97632.88;5056217;28;20258;-70
2022/08/19 03:29:39;;;;;;;21.33;19.23;;;;;;;20.36;77.71;97637.25;5055745;28;20751;-70
2022/08/19 03:32:06;;;;;;;21.80;19.60;;;;;;;20.37;77.75;97628.03;5056194;28;20556;-70
2022/08/19 03:34:35;;;;;;;22.73;20.47;;;;;;;20.44;77.34;97633.88;5055972;28;20201;-70
2022/08/19 03:37:06;;;;;;;23.40;21.00;;;;;;;20.28;77.93;97630.59;5055521;28;20212;-70
2022/08/19 03:39:33;;;;;;;24.23;22.03;;;;;;;20.22;78.14;97644.44;5055784;28;20312;-70
2022/08/19 03:42:02;;;;;;;24.47;22.03;;;;;;;20.11;78.84;97638.38;5055914;28;20567;-70
2022/08/19 03:44:29;;;;;;;23.77;21.27;;;;;;;20.15;78.75;97641.28;5055811;28;20283;-70
2022/08/19 03:46:59;;;;;;;22.83;20.63;;;;;;;20.15;78.90;97638.59;5055717;28;20214;-70
2022/08/19 03:49:28;;;;;;;23.50;21.30;;;;;;;20.19;78.71;97631.53;5055541;28;20850;-70
2022/08/19 03:51:57;;;;;;;22.90;20.80;;;;;;;20.16;78.68;97627.50;5055873;28;20292;-70
2022/08/19 03:54:25;;;;;;;23.27;20.77;;;;;;;20.27;78.26;97620.91;5055572;28;20197;-70
2022/08/19 03:56:54;;;;;;;24.03;21.67;;;;;;;20.12;78.80;97639.19;5055417;28;20753;-70
2022/08/19 03:59:30;;;;;;;23.23;21.03;;;;;;;20.11;79.11;97637.59;5055722;28;20286;-70
2022/08/19 04:01:59;;;;;;;22.70;20.43;;;;;;;20.11;79.11;97640.28;5055216;28;20299;-70
2022/08/19 04:04:26;;;;;;;24.80;22.47;;;;;;;20.10;79.11;97639.47;5055467;28;20225;-70
2022/08/19 04:06:53;;;;;;;24.60;22.20;;;;;;;20.11;79.01;97634.91;5055294;28;20668;-70
2022/08/19 04:09:21;;;;;;;24.40;22.00;;;;;;;20.09;78.89;97642.47;5055326;28;20229;-70
2022/08/19 04:11:53;;;;;;;26.40;23.90;;;;;;;20.03;79.09;97640.91;5055361;28;20205;-70
2022/08/19 04:14:21;;;;;;;24.40;22.00;;;;;;;20.06;79.21;97638.41;5055102;28;20192;-70
2022/08/19 04:16:49;;;;;;;26.13;23.63;;;;;;;19.99;79.48;97642.56;5055250;28;20300;-70
2022/08/19 04:19:17;;;;;;;24.50;22.23;;;;;;;20.02;79.38;97645.47;5055278;28;20229;-70
2022/08/19 04:21:47;;;;;;;25.77;23.47;;;;;;;20.01;79.19;97634.97;5055061;28;20701;-70
2022/08/19 04:24:14;;;;;;;24.97;22.47;;;;;;;19.98;79.40;97627.47;5055114;28;20691;-70
2022/08/19 04:26:41;;;;;;;26.90;22.97;;;;;;;19.99;79.39;97632.56;5055058;28;20299;-70
2022/08/19 04:29:12;;;;;;;25.73;23.43;;;;;;;19.97;79.43;97637.44;5054977;28;20272;-70
2022/08/19 04:31:38;;;;;;;25.27;23.00;;;;;;;19.93;79.53;97628.31;5054734;28;20647;-71
2022/08/19 04:34:07;;;;;;;24.37;21.97;;;;;;;19.99;79.74;97627.16;5054987;28;20682;-70
2022/08/19 04:36:36;;;;;;;25.40;23.00;;;;;;;19.97;79.42;97629.34;5054949;28;20219;-70
2022/08/19 04:39:17;;;;;;;26.70;24.20;;;;;;;19.98;79.40;97624.78;5054741;28;20232;-70
2022/08/19 04:44:30;;;;;;;25.13;22.53;;;;;;;20.02;79.39;97631.19;5054292;28;20204;-70
2022/08/19 04:46:57;;;;;;;25.83;23.30;;;;;;;19.99;79.60;97637.16;5055057;28;20263;-70
2022/08/19 04:49:24;;;;;;;24.60;22.20;;;;;;;20.00;79.42;97633.38;5054280;28;20315;-70
2022/08/19 04:51:53;;;;;;;26.03;23.43;;;;;;;19.99;79.36;97637.16;5054639;28;20287;-70
2022/08/19 04:54:22;;;;;;;27.13;24.53;;;;;;;20.03;78.84;97649.00;5054594;28;20201;-70
2022/08/19 04:56:51;;;;;;;26.07;23.47;;;;;;;19.99;79.22;97643.34;5054797;28;20232;-70
2022/08/19 04:59:19;;;;;;;26.37;23.77;;;;;;;19.99;79.21;97647.97;5054439;28;20230;-70
2022/08/19 05:01:49;;;;;;;24.87;22.40;;;;;;;20.00;79.34;97646.84;5053990;28;20263;-70
2022/08/19 05:04:19;;;;;;;25.13;22.77;;;;;;;20.04;79.16;97653.28;5054356;28;20224;-70
2022/08/19 05:06:47;;;;;;;22.97;20.77;;;;;;;20.06;79.07;97648.41;5054446;28;20209;-70
2022/08/19 05:09:13;;;;;;;26.30;23.83;;;;;;;19.97;79.18;97650.13;5054300;28;20323;-70
2022/08/19 05:11:40;;;;;;;24.47;22.17;;;;;;;20.01;79.10;97651.97;5054062;28;20291;-70
2022/08/19 05:14:08;;;;;;;24.77;22.27;;;;;;;20.10;78.65;97666.47;5053819;28;20768;-70
2022/08/19 05:16:35;;;;;;;25.37;22.97;;;;;;;20.04;79.26;97661.38;5054192;28;20300;-70
2022/08/19 05:24:30;;;;;;;24.70;22.07;;;;;;;20.14;78.86;97683.69;5053937;28;20208;-70
2022/08/19 05:26:57;;;;;;;24.97;22.77;;;;;;;20.25;78.04;97690.56;5053553;28;20605;-70
2022/08/19 05:29:26;;;;;;;25.10;22.70;;;;;;;20.19;78.51;97710.63;5053534;28;20665;-70
2022/08/19 05:31:55;;;;;;;26.27;23.73;;;;;;;19.99;79.14;97720.81;5053767;28;20212;-70
2022/08/19 05:34:24;;;;;;;25.90;23.30;;;;;;;20.07;79.03;97725.59;5053628;28;20746;-70
2022/08/19 05:36:56;;;;;;;24.27;21.73;;;;;;;20.08;79.04;97733.41;5053197;28;20202;-70
2022/08/19 05:39:25;;;;;;;24.83;22.43;;;;;;;20.09;79.13;97739.63;5053667;28;20225;-69
2022/08/19 05:41:57;;;;;;;23.70;21.67;;;;;;;20.11;79.45;97737.44;5053750;28;20660;-69
2022/08/19 05:44:26;;;;;;;27.10;24.50;;;;;;;20.21;78.81;97743.50;5053622;28;20225;-69
2022/08/19 05:46:53;;;;;;;25.03;22.67;;;;;;;20.09;79.28;97739.63;5053614;28;20201;-69
2022/08/19 05:49:22;;;;;;;25.50;23.10;;;;;;;20.16;79.41;97737.38;5053658;28;20312;-69
2022/08/19 05:51:49;;;;;;;25.10;22.73;;;;;;;20.07;79.38;97739.88;5053325;28;20207;-70
2022/08/19 05:54:16;;;;;;;23.37;21.23;;;;;;;20.23;78.84;97733.25;5053261;28;20212;-69
2022/08/19 05:56:43;;;;;;;26.37;23.53;;;;;;;20.12;79.38;97728.25;5053539;28;20259;-70
2022/08/19 05:59:11;;;;;;;24.20;21.97;;;;;;;20.18;79.42;97733.31;5053285;28;20228;-69
2022/08/19 06:01:40;;;;;;;25.00;22.70;;;;;;;20.12;79.57;97737.13;5053326;28;20296;-70
2022/08/19 06:04:07;;;;;;;26.40;23.83;;;;;;;20.11;79.61;97732.84;5053309;28;20225;-70
2022/08/19 06:06:34;;;;;;;26.50;23.90;;;;;;;20.17;79.31;97739.00;5053451;28;20205;-69
2022/08/19 06:09:07;;;;;;;23.83;21.60;;;;;;;20.28;78.44;97732.38;5053284;28;20221;-70
2022/08/19 06:11:53;;;;;;;24.80;22.50;;;;;;;20.18;79.38;97735.19;5053441;28;20579;-69
2022/08/19 06:14:22;;;;;;;25.80;23.33;;;;;;;20.20;79.04;97736.50;5052795;28;20231;-69
2022/08/19 06:16:52;;;;;;;24.60;22.30;;;;;;;20.10;79.49;97738.53;5053127;28;20209;-69
2022/08/19 06:19:20;;;;;;;25.17;22.67;;;;;;;20.20;79.23;97735.69;5052839;28;20585;-69
2022/08/19 06:21:49;;;;;;;24.73;22.33;;;;;;;20.19;79.00;97740.31;5053108;28;20209;-69
2022/08/19 06:24:18;;;;;;;23.63;21.43;;;;;;;20.21;79.08;97737.31;5052844;28;20225;-71
2022/08/19 06:26:48;;;;;;;23.63;21.27;;;;;;;20.20;79.35;97730.28;5052753;28;20217;-70
2022/08/19 06:29:17;;;;;;;23.53;21.37;;;;;;;20.27;78.94;97728.06;5052457;28;20320;-70
2022/08/19 06:31:47;;;;;;;24.87;22.37;;;;;;;20.35;78.48;97727.44;5052890;28;20197;-71
2022/08/19 06:34:14;;;;;;;24.57;22.17;;;;;;;20.42;78.58;97731.38;5055903;28;20250;-70
2022/08/19 06:36:44;;;;;;;23.87;21.47;;;;;;;20.12;81.37;97739.84;5056931;28;20295;-69
2022/08/19 06:39:17;;;;;;;26.27;23.70;;;;;;;20.04;81.27;97739.66;5056791;28;20278;-69
2022/08/19 06:41:47;;;;;;;26.27;23.67;;;;;;;20.06;82.56;97740.16;5056645;28;20186;-69
2022/08/19 06:44:15;;;;;;;27.47;24.17;;;;;;;19.89;83.36;97745.22;5056875;28;20213;-69
2022/08/19 06:46:42;;;;;;;26.07;23.60;;;;;;;19.89;85.57;97742.50;5057195;28;20213;-69
2022/08/19 06:49:11;;;;;;;26.50;24.00;;;;;;;19.78;86.06;97739.09;5056529;28;20307;-69
2022/08/19 06:51:38;;;;;;;27.90;25.20;;;;;;;19.75;87.64;97744.28;5056783;28;20271;-69
2022/08/19 06:54:05;;;;;;;27.93;25.33;;;;;;;19.76;86.24;97746.66;5056391;28;20205;-69
2022/08/19 06:56:34;;;;;;;27.13;24.60;;;;;;;19.68;87.26;97734.59;5056459;28;20548;-69
2022/08/19 06:59:10;;;;;;;27.10;24.47;;;;;;;19.78;86.52;97737.19;5056107;28;20704;-69
2022/08/19 07:01:44;;;;;;;26.23;23.73;;;;;;;19.73;88.30;97747.25;5056169;28;20209;-70
2022/08/19 07:04:10;;;;;;;27.70;25.00;;;;;;;19.75;88.08;97739.66;5056478;28;20288;-69
2022/08/19 07:06:37;;;;;;;26.67;24.17;;;;;;;19.76;86.62;97743.19;5056598;28;20240;-69
2022/08/19 07:09:08;;;;;;;26.67;24.07;;;;;;;19.77;86.96;97749.09;5056307;28;20312;-69
2022/08/19 07:11:34;;;;;;;24.97;22.77;;;;;;;19.78;88.05;97753.38;5056295;28;20209;-69
2022/08/19 07:14:02;;;;;;;25.67;23.37;;;;;;;19.92;86.34;97756.22;5056280;28;20206;-69
2022/08/19 07:16:29;;;;;;;26.00;23.53;;;;;;;19.89;85.85;97745.22;5056472;28;20296;-69
2022/08/19 07:18:56;;;;;;;25.40;23.07;;;;;;;19.88;85.14;97752.50;5055912;28;20357;-69
2022/08/19 07:21:27;;;;;;;25.27;22.57;;;;;;;19.99;83.20;97764.78;5055898;28;20664;-69
2022/08/19 07:23:55;;;;;;;25.00;22.77;;;;;;;19.99;85.02;97759.38;5056196;28;20190;-69
2022/08/19 07:26:26;;;;;;;24.07;21.87;;;;;;;19.92;83.67;97766.19;5056591;28;20232;-69
2022/08/19 07:28:53;;;;;;;25.67;23.23;;;;;;;19.97;83.96;97764.28;5055488;28;20316;-69
2022/08/19 07:31:22;;;;;;;23.97;21.87;;;;;;;20.02;83.15;97763.44;5055954;28;20564;-71
2022/08/19 07:33:50;;;;;;;24.27;21.97;;;;;;;20.04;82.83;97756.66;5055733;28;20617;-68
2022/08/19 07:36:21;;;;;;;25.37;22.73;;;;;;;19.99;82.46;97762.06;5056162;28;20296;-69
2022/08/19 07:38:50;;;;;;;24.33;21.83;;;;;;;19.98;82.97;97762.38;5055918;28;20197;-69
2022/08/19 07:41:23;;;;;;;22.90;20.53;;;;;;;19.99;82.24;97762.06;5055960;28;20209;-69
2022/08/19 07:43:51;;;;;;;22.40;20.10;;;;;;;20.02;82.44;97766.13;5055849;28;20625;-69
2022/08/19 07:46:20;;;;;;;23.57;21.20;;;;;;;19.99;82.79;97770.16;5054643;28;20229;-69
2022/08/19 07:48:47;;;;;;;22.07;19.97;;;;;;;20.00;82.37;97771.00;5055492;28;20611;-69
2022/08/19 07:51:16;;;;;;;22.10;19.90;;;;;;;20.09;81.03;97761.22;5055881;28;20580;-69
2022/08/19 07:53:44;;;;;;;22.83;20.53;;;;;;;20.07;81.85;97768.75;5055396;28;20304;-69
2022/08/19 07:56:11;;;;;;;23.00;20.60;;;;;;;20.04;81.36;97761.22;5055788;28;20201;-68
2022/08/19 07:58:41;;;;;;;21.77;19.87;;;;;;;20.05;81.41;97771.75;5055498;28;20300;-69
2022/08/19 08:01:11;;;;;;;22.20;20.03;;;;;;;20.16;80.40;97767.09;5055374;28;20669;-69
2022/08/19 08:09:20;;;;;;;21.07;18.97;;;;;;;20.23;79.83;97765.66;5055254;28;20702;-69
2022/08/19 08:11:52;;;;;;;21.90;19.80;;;;;;;20.34;79.17;97766.34;5055372;28;20195;-69
2022/08/19 08:14:33;;;;;;;20.70;18.70;;;;;;;20.29;79.04;97769.06;5055277;28;20654;-69
2022/08/19 08:17:00;;;;;;;20.47;18.67;;;;;;;20.16;80.23;97772.47;5055626;28;20193;-69
2022/08/19 08:19:28;;;;;;;21.27;19.03;;;;;;;20.10;81.71;97781.69;5055012;28;20225;-69
2022/08/19 08:21:57;;;;;;;20.47;18.47;;;;;;;20.07;81.93;97784.97;5054963;28;20283;-69
2022/08/19 08:24:25;;;;;;;20.93;18.90;;;;;;;20.04;82.92;97785.53;5054967;28;20215;-69
2022/08/19 08:26:51;;;;;;;21.67;19.57;;;;;;;20.08;82.29;97781.16;5055107;28;20244;-71
2022/08/19 08:29:19;;;;;;;20.90;18.73;;;;;;;20.11;81.79;97786.03;5054931;28;20311;-71
2022/08/19 08:31:47;;;;;;;21.33;19.33;;;;;;;20.19;81.35;97788.91;5055171;28;20228;-69
2022/08/19 08:34:14;;;;;;;19.43;17.50;;;;;;;20.17;81.13;97785.66;5054560;28;20216;-69
2022/08/19 08:36:45;;;;;;;20.93;18.93;;;;;;;20.15;81.18;97785.16;5054685;28;20292;-69
2022/08/19 08:39:18;;;;;;;20.13;18.33;;;;;;;20.31;81.88;97780.41;5054908;28;20249;-69
2022/08/19 08:42:06;;;;;;;22.83;20.63;;;;;;;20.04;84.70;97786.34;5054655;28;20605;-69
2022/08/19 08:44:49;;;;;;;23.87;21.77;;;;;;;19.81;87.43;97786.28;5054677;28;20189;-69
2022/08/19 08:47:20;;;;;;;24.87;22.13;;;;;;;19.40;95.27;97783.94;5054798;28;20185;-69
2022/08/19 08:49:59;;;;;;;24.70;22.40;;;;;;;19.41;95.57;97780.16;5054683;28;20229;-70
2022/08/19 08:52:29;;;;;;;25.23;22.50;;;;;;;19.47;94.99;97778.22;5054691;28;20656;-69
2022/08/19 08:55:00;;;;;;;26.03;22.90;;;;;;;19.49;94.50;97787.63;5054514;28;20657;-69
2022/08/19 08:57:32;;;;;;;23.37;21.30;;;;;;;19.60;92.75;97782.97;5053522;28;20189;-69
2022/08/19 09:00:04;;;;;;;23.07;20.67;;;;;;;19.67;92.92;97781.56;5054449;28;20316;-69
2022/08/19 09:02:30;;;;;;;22.77;20.73;;;;;;;19.78;92.29;97785.75;5054253;28;20250;-69
2022/08/19 09:04:57;;;;;;;25.00;22.60;;;;;;;19.81;92.86;97784.38;5054435;28;20229;-69
2022/08/19 09:07:35;;;;;;;23.10;20.80;;;;;;;19.83;91.30;97793.00;5054390;28;20212;-69
2022/08/19 09:10:10;;;;;;;23.60;21.50;;;;;;;19.89;92.93;97782.97;5054268;28;20311;-69
2022/08/19 09:13:00;;;;;;;23.17;21.07;;;;;;;19.97;90.93;97783.16;5054499;28;20280;-69
2022/08/19 09:15:37;;;;;;;23.87;21.00;;;;;;;20.05;90.41;97787.94;5038285;28;20629;-69
2022/08/19 09:18:06;;;;;;;21.70;19.83;;;;;;;20.16;89.40;97788.69;5037289;28;20189;-69
2022/08/19 09:20:32;;;;;;;20.53;18.53;;;;;;;20.20;89.02;97798.59;5053799;28;20225;-69
2022/08/19 09:22:59;;;;;;;21.87;19.67;;;;;;;20.21;89.20;97794.00;5054035;28;20236;-71
2022/08/19 09:25:26;;;;;;;21.63;19.53;;;;;;;20.28;88.53;97786.38;5053598;28;20236;-71
2022/08/19 09:27:54;;;;;;;20.90;18.80;;;;;;;20.36;87.89;97793.84;5053776;28;20255;-71
2022/08/19 09:30:27;;;;;;;20.57;18.67;;;;;;;20.41;87.16;97791.06;5053551;28;20260;-72
2022/08/19 09:32:55;;;;;;;19.93;17.87;;;;;;;20.48;86.29;97791.56;5053978;28;20194;-71
2022/08/19 09:35:23;;;;;;;19.47;17.53;;;;;;;20.56;85.19;97794.41;5053782;28;20233;-71
2022/08/19 09:37:50;;;;;;;19.63;17.57;;;;;;;20.60;85.60;97789.22;5053286;28;20215;-69
2022/08/19 09:40:18;;;;;;;19.03;16.77;;;;;;;20.65;84.47;97784.56;5053532;28;20316;-69
2022/08/19 09:42:47;;;;;;;19.83;16.70;;;;;;;20.76;84.23;97782.53;5054240;28;20255;-69
2022/08/19 09:45:15;;;;;;;17.63;15.87;;;;;;;20.82;82.85;97784.06;5053210;28;20231;-69
2022/08/19 09:47:41;;;;;;;18.30;15.90;;;;;;;21.04;81.36;97790.56;5053214;28;20658;-69
2022/08/19 09:50:10;;;;;;;17.27;15.60;;;;;;;21.06;81.09;97798.34;5053409;28;20221;-69
2022/08/19 09:52:38;;;;;;;17.47;15.67;;;;;;;21.04;81.95;97789.75;5053526;28;20237;-69
2022/08/19 09:55:05;;;;;;;15.80;14.10;;;;;;;21.09;80.51;97792.38;5053628;28;20288;-69
2022/08/19 09:57:32;;;;;;;16.27;14.80;;;;;;;21.05;82.33;97796.75;5053229;28;20291;-69
2022/08/19 09:59:59;;;;;;;16.20;14.67;;;;;;;21.15;80.15;97796.59;5053272;28;20225;-69
2022/08/19 10:02:25;;;;;;;17.60;15.87;;;;;;;21.07;79.82;97794.59;5053152;28;20304;-71
2022/08/19 10:07:36;;;;;;;15.90;14.40;;;;;;;21.33;79.87;97798.50;5052915;28;20636;-69
2022/08/19 10:10:06;;;;;;;15.60;13.87;;;;;;;21.24;80.35;97792.97;5053872;28;20315;-69
2022/08/19 10:12:33;;;;;;;16.50;14.77;;;;;;;21.37;78.05;97788.72;5053267;28;20301;-69
2022/08/19 10:15:01;;;;;;;15.43;14.03;;;;;;;21.38;78.08;97790.34;5053076;28;20209;-69
2022/08/19 10:17:28;;;;;;;15.37;13.93;;;;;;;21.39;78.49;97791.94;5053176;28;20296;-69
2022/08/19 10:19:55;;;;;;;14.83;13.43;;;;;;;21.40;78.86;97797.06;5052916;28;20227;-69
2022/08/19 10:22:21;;;;;;;14.30;12.80;;;;;;;21.32;78.90;97786.91;5053173;28;20296;-69
2022/08/19 10:24:49;;;;;;;14.23;12.70;;;;;;;21.37;79.15;97791.41;5053025;28;20205;-69
2022/08/19 10:27:15;;;;;;;14.87;13.37;;;;;;;21.47;79.03;97792.06;5052745;28;20300;-69
2022/08/19 10:29:42;;;;;;;13.43;12.23;;;;;;;21.53;77.30;97787.38;5052590;28;20317;-69
2022/08/19 10:32:09;;;;;;;14.67;13.30;;;;;;;21.59;76.87;97792.41;5052702;28;20239;-69
2022/08/19 10:34:38;;;;;;;14.23;12.63;;;;;;;21.64;77.00;97786.91;5053060;28;20239;-69
2022/08/19 10:37:06;;;;;;;12.27;11.17;;;;;;;21.69;77.05;97786.88;5053393;28;20292;-71
2022/08/19 10:39:34;;;;;;;14.53;12.10;;;;;;;21.74;76.36;97778.66;5052621;28;20308;-71
2022/08/19 10:42:10;;;;;;;14.90;12.27;;;;;;;21.83;75.18;97766.06;5053168;28;20296;-71
2022/08/19 10:44:37;;;;;;;12.73;11.53;;;;;;;21.98;74.33;97770.41;5052958;28;20189;-71
2022/08/19 10:47:04;;;;;;;13.50;11.57;;;;;;;22.10;73.98;97766.09;5052746;28;20339;-71
2022/08/19 10:49:32;;;;;;;12.20;11.00;;;;;;;22.15;74.46;97763.28;5052679;28;20229;-71
2022/08/19 10:57:29;;;;;;;11.23;10.00;;;;;;;21.96;73.37;97769.88;5052481;28;20256;-71
2022/08/19 10:59:57;;;;;;;11.33;10.17;;;;;;;21.92;73.73;97776.97;5053510;28;20225;-71
2022/08/19 11:02:23;;;;;;;11.13;10.13;;;;;;;21.86;73.15;97767.34;5052395;28;20212;-71
2022/08/19 11:04:51;;;;;;;10.90;9.77;;;;;;;21.87;72.86;97777.06;5052403;28;20303;-71
2022/08/19 11:07:18;;;;;;;11.03;9.93;;;;;;;21.88;73.59;97776.00;5052169;28;20257;-71
2022/08/19 11:09:46;;;;;;;10.10;9.20;;;;;;;21.98;73.40;97767.69;5052422;28;20327;-71
2022/08/19 11:12:14;;;;;;;10.40;9.10;;;;;;;22.08;72.64;97767.50;5052589;28;20205;-71
2022/08/19 11:14:41;;;;;;;10.33;9.33;;;;;;;22.29;70.82;97760.59;5052293;28;20576;-71
2022/08/19 11:17:08;;;;;;;9.17;8.30;;;;;;;22.43;69.96;97777.66;5052650;28;20198;-71
2022/08/19 11:19:35;;;;;;;9.83;8.93;;;;;;;22.58;69.14;97771.94;5052099;28;20738;-72
2022/08/19 11:22:03;;;;;;;9.80;8.80;;;;;;;22.58;69.09;97775.47;5056063;28;20201;-71
2022/08/19 11:24:30;;;;;;;9.47;8.57;;;;;;;22.64;67.81;97778.88;5056183;28;20304;-70
2022/08/19 11:27:07;;;;;;;8.97;8.10;;;;;;;22.66;68.59;97773.97;5055973;28;20229;-69
2022/08/19 11:29:34;;;;;;;9.27;8.37;;;;;;;22.77;67.09;97764.50;5055681;28;20802;-69
2022/08/19 11:32:01;;;;;;;10.23;8.70;;;;;;;22.74;66.74;97768.63;5056030;28;20236;-69
2022/08/19 11:34:29;;;;;;;8.20;7.47;;;;;;;22.63;67.72;97764.53;5055610;28;20723;-69
2022/08/19 11:36:58;;;;;;;8.67;7.87;;;;;;;22.60;67.18;97770.53;5055538;28;20212;-69
2022/08/19 11:39:26;;;;;;;8.60;7.80;;;;;;;22.63;67.72;97764.53;5055452;28;20229;-69
2022/08/19 11:41:53;;;;;;;10.13;8.63;;;;;;;22.63;66.18;97775.38;5055966;28;20295;-69
2022/08/19 11:44:20;;;;;;;9.10;7.20;;;;;;;22.71;66.75;97768.44;5055510;28;20676;-69
2022/08/19 11:46:47;;;;;;;9.47;8.33;;;;;;;22.78;66.71;97766.91;5055250;28;20235;-69
2022/08/19 11:49:16;;;;;;;9.30;8.00;;;;;;;22.69;66.39;97774.16;5055579;28;20315;-69
2022/08/19 11:51:43;;;;;;;8.97;8.23;;;;;;;22.80;66.08;97777.44;5055264;28;20684;-72